Terminal Aerodrome Forecast
Issued by NWS

Home | Current Version | Previous Version | Text Only | Print | Product List | Glossary On
Versions: 1 2 3 4 5 6 7 8 9 10 11 12 13 14 15 16 17 18 19 20 21 22 23 24 25 26 27 28 29 30
000
FTUS45 KREV 211700
TAFTRK
TAF
KTRK 211734Z 2118/2218 VRB03KT P6SM SCT030 BKN180
     FM212000 27010KT P6SM SCT040 BKN140
     FM220300 VRB03KT P6SM SCT180
     FM221000 00000KT 1/2SM FZFG BKN001=

USA.gov is the U.S. government's official web portal to all federal, state and local government web resources and services.